createdAt,value
2023-04-17T00:00:33.915Z,22.88
2023-04-17T00:03:01.628Z,21.98
2023-04-17T00:05:28.658Z,22.55
2023-04-17T00:07:55.229Z,22.23
2023-04-17T00:10:21.800Z,22.65
2023-04-17T00:12:48.623Z,21.52
2023-04-17T00:15:15.290Z,22.75
2023-04-17T00:17:41.984Z,22.73
2023-04-17T00:20:12.418Z,21.95
2023-04-17T00:22:39.123Z,21.80
2023-04-17T00:25:06.311Z,20.48
2023-04-17T00:27:32.859Z,21.02
2023-04-17T00:29:59.409Z,22.20
2023-04-17T00:32:25.988Z,20.52
2023-04-17T00:34:55.560Z,18.58
2023-04-17T00:37:22.401Z,20.02
2023-04-17T00:39:48.936Z,19.58
2023-04-17T00:42:15.488Z,19.33
2023-04-17T00:44:42.042Z,18.73
2023-04-17T00:47:08.703Z,19.00
2023-04-17T00:49:36.058Z,19.48
2023-04-17T00:52:02.745Z,19.05
2023-04-17T00:54:29.861Z,17.55
2023-04-17T00:56:57.710Z,18.70
2023-04-17T00:59:26.579Z,17.88
2023-04-17T01:01:53.218Z,17.98
2023-04-17T01:04:19.929Z,17.77
2023-04-17T01:06:46.650Z,18.77
2023-04-17T01:09:14.002Z,16.77
2023-04-17T01:11:40.758Z,17.85
2023-04-17T01:14:07.375Z,18.08
2023-04-17T01:16:33.997Z,16.15
2023-04-17T01:19:00.892Z,16.63
2023-04-17T01:21:28.166Z,16.10
2023-04-17T01:23:55.394Z,17.33
2023-04-17T01:26:23.572Z,15.00
2023-04-17T01:28:57.293Z,15.70
2023-04-17T01:33:51.924Z,15.57
2023-04-17T01:36:19.275Z,15.45
2023-04-17T01:38:45.800Z,16.42
2023-04-17T01:41:12.368Z,14.77
2023-04-17T01:43:44.211Z,14.50
2023-04-17T01:46:11.418Z,14.35
2023-04-17T01:48:38.311Z,15.45
2023-04-17T01:51:05.401Z,14.00
2023-04-17T01:53:32.546Z,14.68
2023-04-17T01:56:00.301Z,13.98
2023-04-17T01:58:27.397Z,14.25
2023-04-17T02:00:53.980Z,13.75
2023-04-17T02:03:20.726Z,14.63
2023-04-17T02:05:47.722Z,14.35
2023-04-17T02:08:14.929Z,13.73
2023-04-17T02:10:42.111Z,13.10
2023-04-17T02:13:09.810Z,12.45
2023-04-17T02:15:39.649Z,13.13
2023-04-17T02:18:06.584Z,13.55
2023-04-17T02:20:37.194Z,12.40
2023-04-17T02:23:05.696Z,12.05
2023-04-17T02:25:32.793Z,13.52
2023-04-17T02:27:59.578Z,12.18
2023-04-17T02:30:27.189Z,13.23
2023-04-17T02:32:54.841Z,11.82
2023-04-17T02:35:22.885Z,12.38
2023-04-17T02:37:49.442Z,12.27
2023-04-17T02:40:16.259Z,11.20
2023-04-17T02:42:43.021Z,11.90
2023-04-17T02:45:10.846Z,12.40
2023-04-17T02:47:37.966Z,12.02
2023-04-17T02:50:05.329Z,12.32
2023-04-17T02:52:34.109Z,11.57
2023-04-17T02:55:00.708Z,11.50
2023-04-17T02:57:27.316Z,11.68
2023-04-17T02:59:53.879Z,11.75
2023-04-17T03:02:22.012Z,11.40
2023-04-17T03:04:50.310Z,11.68
2023-04-17T03:07:18.740Z,10.75
2023-04-17T03:09:49.125Z,11.68
2023-04-17T03:12:16.459Z,11.27
2023-04-17T03:14:43.978Z,11.38
2023-04-17T03:17:11.934Z,10.85
2023-04-17T03:19:38.443Z,10.60
2023-04-17T03:22:05.800Z,10.40
2023-04-17T03:24:32.846Z,10.63
2023-04-17T03:27:00.763Z,10.45
2023-04-17T03:29:27.325Z,9.57
2023-04-17T03:31:53.924Z,10.98
2023-04-17T03:34:21.884Z,9.95
2023-04-17T03:36:48.805Z,9.80
2023-04-17T03:39:15.732Z,9.95
2023-04-17T03:41:42.288Z,9.88
2023-04-17T03:44:09.804Z,9.65
2023-04-17T03:46:36.324Z,9.48
2023-04-17T03:49:02.880Z,9.55
2023-04-17T03:51:29.499Z,10.85
2023-04-17T03:53:56.085Z,9.35
2023-04-17T03:56:22.717Z,9.10
2023-04-17T03:58:49.287Z,9.00
2023-04-17T04:01:15.942Z,9.02
2023-04-17T04:03:42.835Z,8.77
2023-04-17T04:06:09.715Z,9.88
2023-04-17T04:08:36.269Z,9.48
2023-04-17T04:11:03.369Z,9.25
2023-04-17T04:13:29.901Z,9.25
2023-04-17T04:15:56.489Z,10.05
2023-04-17T04:18:23.092Z,9.38
2023-04-17T04:20:49.628Z,9.70
2023-04-17T04:23:16.888Z,8.48
2023-04-17T04:25:43.565Z,9.60
2023-04-17T04:28:10.688Z,8.45
2023-04-17T04:30:38.758Z,8.95
2023-04-17T04:33:06.202Z,9.32
2023-04-17T04:35:32.834Z,8.93
2023-04-17T04:38:02.864Z,9.00
2023-04-17T04:40:30.802Z,9.00
2023-04-17T04:42:58.538Z,9.05
2023-04-17T04:45:25.165Z,8.65
2023-04-17T04:47:51.712Z,8.45
2023-04-17T04:50:18.246Z,8.15
2023-04-17T04:52:44.794Z,9.10
2023-04-17T04:55:12.521Z,8.75
2023-04-17T04:57:39.043Z,9.38
2023-04-17T05:00:06.545Z,9.32
2023-04-17T05:02:33.777Z,9.80
2023-04-17T05:05:00.712Z,9.93
2023-04-17T05:07:27.348Z,9.52
2023-04-17T05:09:53.838Z,9.77
2023-04-17T05:12:20.360Z,9.55
2023-04-17T05:14:47.905Z,9.48
2023-04-17T05:17:14.512Z,9.88
2023-04-17T05:19:41.694Z,10.63
2023-04-17T05:22:08.281Z,9.35
2023-04-17T05:24:34.862Z,10.50
2023-04-17T05:27:02.121Z,10.07
2023-04-17T05:29:28.815Z,10.05
2023-04-17T05:31:55.409Z,11.43
2023-04-17T05:34:22.168Z,10.45
2023-04-17T05:36:48.760Z,10.32
2023-04-17T05:39:15.356Z,10.32
2023-04-17T05:41:41.931Z,10.48
2023-04-17T05:44:08.497Z,9.95
2023-04-17T05:46:35.075Z,9.82
2023-04-17T05:49:01.709Z,9.95
2023-04-17T05:51:28.772Z,10.93
2023-04-17T05:53:55.365Z,10.88
2023-04-17T05:56:21.912Z,10.55
2023-04-17T05:58:48.481Z,10.02
2023-04-17T06:01:17.773Z,9.50
2023-04-17T06:03:44.414Z,11.07
2023-04-17T06:06:11.378Z,10.45
2023-04-17T06:08:37.986Z,10.27
2023-04-17T06:11:04.877Z,10.40
2023-04-17T06:13:31.636Z,10.82
2023-04-17T06:15:58.715Z,9.85
2023-04-17T06:18:25.341Z,10.48
2023-04-17T06:20:51.997Z,10.15
2023-04-17T06:23:18.562Z,9.93
2023-04-17T06:25:45.118Z,10.27
2023-04-17T06:28:11.668Z,10.48
2023-04-17T06:30:38.292Z,10.30
2023-04-17T06:33:04.972Z,10.80
2023-04-17T06:35:31.553Z,10.93
2023-04-17T06:37:58.183Z,11.00
2023-04-17T06:40:24.707Z,10.90
2023-04-17T06:42:51.196Z,9.98
2023-04-17T06:45:17.836Z,9.98
2023-04-17T06:47:46.468Z,10.88
2023-04-17T06:50:13.110Z,10.70
2023-04-17T06:52:39.706Z,10.20
2023-04-17T06:55:06.591Z,10.45
2023-04-17T06:57:34.114Z,10.93
2023-04-17T07:00:00.978Z,10.57
2023-04-17T07:02:27.645Z,10.18
2023-04-17T07:04:57.554Z,10.20
2023-04-17T07:07:25.155Z,10.35
2023-04-17T07:09:51.992Z,9.85
2023-04-17T07:12:18.594Z,9.90
2023-04-17T07:14:45.243Z,10.40
2023-04-17T07:17:11.830Z,11.00
2023-04-17T07:19:38.631Z,10.13
2023-04-17T07:22:05.676Z,10.25
2023-04-17T07:24:35.056Z,9.88
2023-04-17T07:27:03.419Z,10.38
2023-04-17T07:29:30.367Z,10.10
2023-04-17T07:31:56.964Z,9.35
2023-04-17T07:34:25.212Z,10.20
2023-04-17T07:36:54.781Z,9.85
2023-04-17T07:39:21.363Z,9.48
2023-04-17T07:41:49.399Z,9.70
2023-04-17T07:44:16.171Z,9.40
2023-04-17T07:46:42.812Z,8.85
2023-04-17T07:49:11.446Z,9.55
2023-04-17T07:51:41.300Z,9.27
2023-04-17T07:54:08.012Z,10.10
2023-04-17T07:56:34.625Z,9.70
2023-04-17T07:59:01.220Z,10.00
2023-04-17T08:01:27.980Z,9.63
2023-04-17T08:03:55.702Z,9.25
2023-04-17T08:06:22.430Z,8.98
2023-04-17T08:08:48.951Z,9.63
2023-04-17T08:11:15.577Z,9.15
2023-04-17T08:13:42.227Z,9.05
2023-04-17T08:16:09.281Z,9.15
2023-04-17T08:18:37.783Z,9.43
2023-04-17T08:21:04.747Z,8.80
2023-04-17T08:23:31.419Z,9.68
2023-04-17T08:25:58.307Z,8.70
2023-04-17T08:28:25.163Z,9.77
2023-04-17T08:30:51.994Z,9.38
2023-04-17T08:33:18.751Z,9.63
2023-04-17T08:35:45.645Z,8.85
2023-04-17T08:38:14.152Z,8.73
2023-04-17T08:40:43.112Z,9.02
2023-04-17T08:43:19.442Z,8.55
2023-04-17T08:45:55.393Z,9.10
2023-04-17T08:48:25.003Z,8.25
2023-04-17T08:50:53.517Z,8.82
2023-04-17T08:53:20.982Z,8.80
2023-04-17T08:55:48.231Z,9.65
2023-04-17T08:58:16.035Z,8.98
2023-04-17T09:00:44.521Z,8.18
2023-04-17T09:03:12.874Z,8.55
2023-04-17T09:05:48.486Z,8.85
2023-04-17T09:08:26.251Z,8.75
2023-04-17T09:10:54.507Z,9.02
2023-04-17T09:13:25.708Z,8.73
2023-04-17T09:16:21.459Z,9.45
2023-04-17T09:18:49.314Z,8.65
2023-04-17T09:21:20.903Z,10.02
2023-04-17T09:23:52.678Z,9.95
2023-04-17T09:26:33.133Z,9.63
2023-04-17T09:29:03.950Z,9.38
2023-04-17T09:31:32.336Z,10.00
2023-04-17T09:34:12.100Z,9.77
2023-04-17T09:36:41.638Z,10.05
2023-04-17T09:39:20.737Z,9.70
2023-04-17T09:41:47.665Z,9.98
2023-04-17T09:44:26.558Z,9.43
2023-04-17T09:46:53.459Z,10.30
2023-04-17T09:49:24.158Z,9.20
2023-04-17T09:51:52.427Z,9.50
2023-04-17T09:54:20.192Z,9.85
2023-04-17T09:56:49.664Z,9.00
2023-04-17T09:59:16.578Z,9.05
2023-04-17T10:01:43.909Z,8.68
2023-04-17T10:04:12.095Z,8.63
2023-04-17T10:06:38.996Z,9.32
2023-04-17T10:09:05.934Z,9.68
2023-04-17T10:11:37.052Z,8.43
2023-04-17T10:14:19.324Z,8.98
2023-04-17T10:16:47.254Z,8.52
2023-04-17T10:19:34.142Z,7.82
2023-04-17T10:22:15.704Z,8.25
2023-04-17T10:24:43.105Z,8.20
2023-04-17T10:27:24.767Z,8.40
2023-04-17T10:30:05.402Z,8.20
2023-04-17T10:32:34.195Z,7.65
2023-04-17T10:35:16.031Z,7.75
2023-04-17T10:37:48.625Z,7.63
2023-04-17T10:40:21.894Z,7.70
2023-04-17T10:43:23.338Z,7.90
2023-04-17T10:45:59.361Z,7.90
2023-04-17T10:48:38.349Z,7.63
2023-04-17T10:51:23.863Z,7.05
2023-04-17T10:53:51.962Z,7.60
2023-04-17T10:56:32.615Z,7.10
2023-04-17T10:59:01.527Z,8.13
2023-04-17T11:01:36.822Z,7.40
2023-04-17T11:04:06.963Z,7.30
2023-04-17T11:06:38.943Z,7.13
2023-04-17T11:09:10.920Z,6.90
2023-04-17T11:11:44.450Z,6.80
2023-04-17T11:14:22.621Z,6.45
2023-04-17T11:16:51.633Z,7.25
2023-04-17T11:19:27.323Z,7.40
2023-04-17T11:22:01.260Z,7.32
2023-04-17T11:24:29.929Z,6.72
2023-04-17T11:26:59.640Z,6.88
2023-04-17T11:29:27.120Z,6.55
2023-04-17T11:31:55.630Z,6.47
2023-04-17T11:34:22.522Z,6.55
2023-04-17T11:36:53.966Z,7.13
2023-04-17T11:39:21.761Z,6.60
2023-04-17T11:41:49.447Z,6.35
2023-04-17T11:44:18.402Z,7.10
2023-04-17T11:46:55.891Z,6.18
2023-04-17T11:49:30.049Z,6.70
2023-04-17T11:52:04.396Z,5.78
2023-04-17T11:54:39.004Z,6.40
2023-04-17T11:57:09.447Z,6.60
2023-04-17T11:59:37.995Z,6.22
2023-04-17T12:02:08.505Z,5.82
2023-04-17T12:04:37.109Z,6.53
2023-04-17T12:07:05.145Z,6.20
2023-04-17T12:09:33.503Z,6.28
2023-04-17T12:12:04.146Z,6.57
2023-04-17T12:14:31.303Z,6.10
2023-04-17T12:16:57.975Z,6.50
2023-04-17T12:19:26.703Z,6.55
2023-04-17T12:21:54.331Z,6.30
2023-04-17T12:24:22.876Z,6.22
2023-04-17T12:26:50.417Z,6.30
2023-04-17T12:29:17.801Z,6.10
2023-04-17T12:31:45.619Z,5.72
2023-04-17T12:34:12.485Z,5.25
2023-04-17T12:36:39.320Z,5.82
2023-04-17T12:39:05.822Z,5.80
2023-04-17T12:41:32.363Z,6.18
2023-04-17T12:44:01.736Z,5.85
2023-04-17T12:46:28.681Z,6.40
2023-04-17T12:49:04.068Z,5.95
2023-04-17T12:51:32.247Z,5.78
2023-04-17T12:53:58.754Z,5.95
2023-04-17T12:56:25.326Z,5.63
2023-04-17T12:58:51.873Z,5.75
2023-04-17T13:01:18.517Z,6.10
2023-04-17T13:03:45.407Z,6.25
2023-04-17T13:06:12.349Z,6.20
2023-04-17T13:08:39.063Z,5.65
2023-04-17T13:11:05.629Z,5.93
2023-04-17T13:13:32.151Z,5.95
2023-04-17T13:15:58.867Z,5.20
2023-04-17T13:18:26.376Z,5.80
2023-04-17T13:20:52.903Z,5.63
2023-04-17T13:23:19.485Z,6.18
2023-04-17T13:25:46.890Z,6.13
2023-04-17T13:28:13.783Z,5.30
2023-04-17T13:30:40.352Z,6.13
2023-04-17T13:33:07.179Z,6.13
2023-04-17T13:35:33.941Z,6.68
2023-04-17T13:38:02.894Z,8.20
2023-04-17T13:40:30.394Z,8.82
2023-04-17T13:42:56.941Z,8.90
2023-04-17T13:45:23.526Z,10.07
2023-04-17T13:47:50.161Z,9.50
2023-04-17T13:50:16.703Z,9.00
2023-04-17T13:52:43.241Z,8.85
2023-04-17T13:55:13.062Z,9.57
2023-04-17T13:57:39.595Z,9.57
2023-04-17T14:00:07.276Z,9.77
2023-04-17T14:02:33.961Z,8.98
2023-04-17T14:05:00.679Z,10.60
2023-04-17T14:07:27.547Z,9.90
2023-04-17T14:09:54.182Z,9.52
2023-04-17T14:12:21.674Z,8.70
2023-04-17T14:14:48.343Z,7.75
2023-04-17T14:17:14.920Z,7.20
2023-04-17T14:19:41.447Z,8.18
2023-04-17T14:22:08.067Z,7.45
2023-04-17T14:24:34.655Z,7.78
2023-04-17T14:27:02.074Z,7.00
2023-04-17T14:29:28.632Z,7.65
2023-04-17T14:31:55.380Z,7.32
2023-04-17T14:34:21.970Z,8.30
2023-04-17T14:36:48.765Z,7.40
2023-04-17T14:39:15.590Z,8.02
2023-04-17T14:41:42.285Z,7.38
2023-04-17T14:44:08.957Z,7.53
2023-04-17T14:46:35.851Z,6.85
2023-04-17T14:49:02.612Z,6.97
2023-04-17T14:51:30.704Z,7.10
2023-04-17T14:53:57.534Z,6.93
2023-04-17T14:56:24.321Z,7.32
2023-04-17T14:58:50.924Z,6.55
2023-04-17T15:01:17.460Z,7.47
2023-04-17T15:03:46.764Z,7.95
2023-04-17T15:06:14.141Z,7.32
2023-04-17T15:08:40.876Z,6.50
2023-04-17T15:11:07.446Z,6.18
2023-04-17T15:13:34.478Z,6.93
2023-04-17T15:16:01.167Z,7.13
2023-04-17T15:18:27.702Z,6.63
2023-04-17T15:20:54.421Z,6.93
2023-04-17T15:23:22.097Z,7.13
2023-04-17T15:25:48.962Z,7.30
2023-04-17T15:28:15.912Z,6.72
2023-04-17T15:30:42.675Z,6.97
2023-04-17T15:33:10.409Z,6.22
2023-04-17T15:35:37.553Z,7.00
2023-04-17T15:38:06.043Z,7.50
2023-04-17T15:40:32.754Z,7.82
2023-04-17T15:42:59.680Z,8.30
2023-04-17T15:45:27.266Z,7.53
2023-04-17T15:47:54.733Z,7.40
2023-04-17T15:50:21.708Z,8.40
2023-04-17T15:52:48.285Z,8.25
2023-04-17T15:55:15.291Z,8.45
2023-04-17T15:57:43.070Z,8.70
2023-04-17T16:00:10.560Z,8.52
2023-04-17T16:02:37.379Z,8.38
2023-04-17T16:05:04.229Z,7.63
2023-04-17T16:07:31.327Z,8.50
2023-04-17T16:09:58.157Z,8.63
2023-04-17T16:12:24.703Z,8.07
2023-04-17T16:14:51.309Z,7.75
2023-04-17T16:17:17.936Z,7.88
2023-04-17T16:19:44.640Z,8.07
2023-04-17T16:22:11.206Z,7.68
2023-04-17T16:24:37.750Z,8.20
2023-04-17T16:27:06.318Z,8.30
2023-04-17T16:29:32.982Z,7.25
2023-04-17T16:31:59.657Z,8.35
2023-04-17T16:34:26.258Z,7.63
2023-04-17T16:36:52.850Z,8.20
2023-04-17T16:39:19.400Z,8.18
2023-04-17T16:41:46.046Z,6.68
2023-04-17T16:44:12.991Z,8.25
2023-04-17T16:47:03.041Z,8.07
2023-04-17T16:49:26.202Z,7.65
2023-04-17T16:51:52.967Z,7.53
2023-04-17T16:54:21.525Z,7.10
2023-04-17T16:56:48.600Z,8.48
2023-04-17T16:59:15.821Z,7.78
2023-04-17T17:01:42.397Z,7.82
2023-04-17T17:04:09.176Z,7.70
2023-04-17T17:06:35.794Z,8.20
2023-04-17T17:09:02.419Z,8.23
2023-04-17T17:11:29.087Z,8.13
2023-04-17T17:13:56.314Z,7.97
2023-04-17T17:16:22.897Z,8.98
2023-04-17T17:18:49.506Z,8.75
2023-04-17T17:21:16.043Z,8.40
2023-04-17T17:23:42.858Z,8.70
2023-04-17T17:26:09.398Z,8.50
2023-04-17T17:28:36.759Z,8.77
2023-04-17T17:31:06.152Z,8.82
2023-04-17T17:33:32.932Z,9.00
2023-04-17T17:35:59.798Z,9.38
2023-04-17T17:38:28.623Z,9.05
2023-04-17T17:40:58.170Z,9.45
2023-04-17T17:43:24.949Z,9.52
2023-04-17T17:45:52.560Z,9.30
2023-04-17T17:48:20.481Z,9.73
2023-04-17T17:50:47.558Z,10.60
2023-04-17T17:53:16.191Z,10.55
2023-04-17T17:55:42.749Z,10.55
2023-04-17T17:58:09.411Z,10.88
2023-04-17T18:00:36.016Z,10.57
2023-04-17T18:03:02.720Z,11.05
2023-04-17T18:05:29.313Z,10.35
2023-04-17T18:07:55.828Z,11.38
2023-04-17T18:10:22.620Z,15.07
2023-04-17T18:12:49.818Z,14.70
2023-04-17T18:15:16.611Z,20.27
2023-04-17T18:17:43.206Z,21.42
2023-04-17T18:20:10.459Z,18.17
2023-04-17T18:22:38.370Z,18.33
2023-04-17T18:25:08.212Z,19.30
2023-04-17T18:27:37.606Z,18.27
2023-04-17T18:30:08.505Z,18.02
2023-04-17T18:32:35.990Z,18.10
2023-04-17T18:35:02.882Z,17.58
2023-04-17T18:37:29.668Z,18.27
2023-04-17T18:39:56.193Z,17.02
2023-04-17T18:42:22.913Z,18.00
2023-04-17T18:44:49.955Z,18.38
2023-04-17T18:47:16.807Z,18.63
2023-04-17T18:49:43.369Z,17.40
2023-04-17T18:52:09.959Z,17.38
2023-04-17T18:54:36.498Z,18.55
2023-04-17T18:57:03.064Z,18.95
2023-04-17T18:59:30.246Z,17.73
2023-04-17T19:01:56.945Z,17.83
2023-04-17T19:04:23.661Z,17.52
2023-04-17T19:06:50.280Z,17.63
2023-04-17T19:09:16.888Z,17.55
2023-04-17T19:11:43.509Z,17.95
2023-04-17T19:14:10.068Z,18.02
2023-04-17T19:16:37.004Z,17.60
2023-04-17T19:19:05.446Z,17.27
2023-04-17T19:21:32.829Z,16.98
2023-04-17T19:23:59.369Z,16.35
2023-04-17T19:26:25.933Z,17.75
2023-04-17T19:28:52.471Z,16.60
2023-04-17T19:31:19.043Z,16.92
2023-04-17T19:33:45.725Z,17.35
2023-04-17T19:36:12.307Z,17.17
2023-04-17T19:38:38.858Z,18.48
2023-04-17T19:41:19.978Z,18.13
2023-04-17T19:43:49.750Z,16.73
2023-04-17T19:46:17.256Z,18.20
2023-04-17T19:48:45.341Z,16.85
2023-04-17T19:51:12.957Z,17.65
2023-04-17T19:53:40.827Z,16.67
2023-04-17T19:56:08.757Z,16.65
2023-04-17T19:58:36.418Z,17.92
2023-04-17T20:01:03.220Z,17.92
2023-04-17T20:03:30.923Z,17.58
2023-04-17T20:05:58.315Z,17.05
2023-04-17T20:08:25.546Z,17.17
2023-04-17T20:10:52.267Z,17.00
2023-04-17T20:13:18.836Z,18.35
2023-04-17T20:15:45.385Z,16.38
2023-04-17T20:18:12.166Z,17.15
2023-04-17T20:20:39.372Z,15.52
2023-04-17T20:23:06.261Z,16.42
2023-04-17T20:25:32.852Z,16.67
2023-04-17T20:27:59.399Z,17.00
2023-04-17T20:30:25.983Z,17.30
2023-04-17T20:32:52.633Z,16.83
2023-04-17T20:35:23.586Z,16.65
2023-04-17T20:37:51.650Z,18.13
2023-04-17T20:40:19.077Z,17.00
2023-04-17T20:42:46.332Z,17.10
2023-04-17T20:45:13.246Z,17.17
2023-04-17T20:47:52.870Z,17.85
2023-04-17T20:50:22.988Z,17.03
2023-04-17T20:52:49.615Z,17.10
2023-04-17T20:55:18.684Z,17.55
2023-04-17T20:57:45.935Z,17.63
2023-04-17T21:00:12.779Z,17.55
2023-04-17T21:02:39.522Z,17.33
2023-04-17T21:05:07.451Z,17.58
2023-04-17T21:07:34.369Z,18.27
2023-04-17T21:10:01.141Z,17.48
2023-04-17T21:12:28.234Z,18.08
2023-04-17T21:14:54.846Z,16.38
2023-04-17T21:17:21.395Z,15.95
2023-04-17T21:19:48.033Z,17.08
2023-04-17T21:22:14.543Z,16.95
2023-04-17T21:24:41.147Z,18.00
2023-04-17T21:27:07.736Z,15.95
2023-04-17T21:29:34.272Z,17.60
2023-04-17T21:32:00.807Z,15.90
2023-04-17T21:34:27.426Z,16.92
2023-04-17T21:36:54.453Z,16.65
2023-04-17T21:39:21.774Z,16.30
2023-04-17T21:41:48.368Z,16.20
2023-04-17T21:44:15.455Z,17.23
2023-04-17T21:46:45.200Z,15.60
2023-04-17T21:49:12.406Z,16.55
2023-04-17T21:51:39.181Z,16.13
2023-04-17T21:54:05.759Z,16.10
2023-04-17T21:56:32.316Z,17.33
2023-04-17T21:58:58.869Z,16.15
2023-04-17T22:01:25.457Z,16.52
2023-04-17T22:03:52.049Z,16.42
2023-04-17T22:06:18.715Z,15.30
2023-04-17T22:08:45.490Z,15.13
2023-04-17T22:11:12.127Z,15.88
2023-04-17T22:13:38.711Z,16.88
2023-04-17T22:16:06.706Z,15.98
2023-04-17T22:18:33.268Z,16.65
2023-04-17T22:20:59.780Z,15.27
2023-04-17T22:23:45.135Z,15.77
2023-04-17T22:26:11.772Z,15.45
2023-04-17T22:28:38.308Z,14.32
2023-04-17T22:31:42.322Z,15.07
2023-04-17T22:34:46.215Z,15.73
2023-04-17T22:37:31.271Z,16.13
2023-04-17T22:40:35.580Z,15.55
2023-04-17T22:43:39.494Z,15.30
2023-04-17T22:46:06.127Z,15.23
2023-04-17T22:48:32.723Z,14.43
2023-04-17T22:50:59.254Z,15.35
2023-04-17T22:53:26.142Z,14.55
2023-04-17T22:56:13.051Z,15.35
2023-04-17T22:58:41.821Z,14.98
2023-04-17T23:01:08.414Z,14.20
2023-04-17T23:03:35.282Z,14.73
2023-04-17T23:06:01.899Z,14.18
2023-04-17T23:08:30.247Z,14.65
2023-04-17T23:10:59.617Z,13.95
2023-04-17T23:13:30.545Z,13.93
2023-04-17T23:15:57.253Z,13.45
2023-04-17T23:18:23.876Z,13.32
2023-04-17T23:20:50.417Z,13.52
2023-04-17T23:23:18.423Z,13.50
2023-04-17T23:25:45.173Z,14.13
2023-04-17T23:28:11.784Z,13.52
2023-04-17T23:30:38.300Z,13.57
2023-04-17T23:33:04.868Z,12.43
2023-04-17T23:35:31.431Z,13.05
2023-04-17T23:37:57.991Z,13.90
2023-04-17T23:40:25.706Z,14.13
2023-04-17T23:42:52.994Z,13.25
2023-04-17T23:45:19.673Z,12.40
2023-04-17T23:47:46.443Z,12.45
2023-04-17T23:50:13.074Z,12.35
2023-04-17T23:52:39.596Z,12.38
2023-04-17T23:55:06.650Z,12.20
2023-04-17T23:57:35.456Z,12.55
